createdAt,value
2023-05-16T00:00:38.287Z,9.71
2023-05-16T00:01:41.281Z,8.43
2023-05-16T00:02:44.489Z,9.86
2023-05-16T00:03:47.888Z,10.00
2023-05-16T00:04:51.211Z,8.57
2023-05-16T00:05:54.405Z,8.00
2023-05-16T00:06:57.785Z,7.29
2023-05-16T00:08:00.872Z,6.57
2023-05-16T00:09:04.349Z,6.86
2023-05-16T00:10:07.741Z,7.43
2023-05-16T00:11:10.818Z,8.43
2023-05-16T00:12:14.069Z,9.00
2023-05-16T00:13:17.294Z,8.14
2023-05-16T00:14:20.771Z,7.00
2023-05-16T00:15:23.954Z,8.43
2023-05-16T00:16:27.357Z,8.00
2023-05-16T00:17:30.763Z,8.43
2023-05-16T00:18:34.041Z,7.57
2023-05-16T00:19:37.307Z,6.57
2023-05-16T00:20:40.371Z,8.00
2023-05-16T00:21:43.765Z,9.00
2023-05-16T00:22:47.060Z,7.86
2023-05-16T00:23:50.327Z,8.00
2023-05-16T00:24:53.415Z,8.00
2023-05-16T00:25:56.504Z,8.67
2023-05-16T00:26:59.757Z,8.00
2023-05-16T00:28:03.060Z,7.57
2023-05-16T00:29:06.343Z,7.86
2023-05-16T00:30:09.606Z,9.00
2023-05-16T00:31:12.813Z,8.00
2023-05-16T00:32:16.123Z,7.14
2023-05-16T00:33:19.228Z,7.29
2023-05-16T00:34:22.495Z,7.29
2023-05-16T00:35:25.737Z,7.43
2023-05-16T00:36:28.922Z,8.00
2023-05-16T00:37:32.103Z,8.43
2023-05-16T00:38:35.396Z,8.29
2023-05-16T00:39:38.365Z,9.00
2023-05-16T00:40:41.547Z,7.67
2023-05-16T00:41:44.840Z,7.00
2023-05-16T00:42:48.627Z,7.33
2023-05-16T00:43:51.923Z,8.14
2023-05-16T00:44:55.205Z,7.86
2023-05-16T00:45:58.369Z,7.00
2023-05-16T00:47:01.661Z,7.86
2023-05-16T00:48:04.835Z,8.57
2023-05-16T00:49:08.235Z,7.57
2023-05-16T00:50:11.518Z,6.86
2023-05-16T00:51:14.802Z,8.43
2023-05-16T00:52:18.191Z,10.00
2023-05-16T00:53:21.485Z,9.00
2023-05-16T00:54:24.652Z,9.00
2023-05-16T00:55:27.760Z,8.67
2023-05-16T00:56:30.814Z,9.33
2023-05-16T00:57:33.898Z,9.29
2023-05-16T00:58:36.872Z,8.57
2023-05-16T00:59:39.859Z,8.71
2023-05-16T01:00:42.931Z,8.83
2023-05-16T01:01:46.019Z,7.29
2023-05-16T01:02:49.264Z,6.43
2023-05-16T01:03:52.452Z,6.43
2023-05-16T01:04:55.754Z,7.43
2023-05-16T01:05:59.039Z,8.57
2023-05-16T01:07:02.022Z,8.00
2023-05-16T01:08:04.992Z,8.43
2023-05-16T01:09:08.086Z,8.17
2023-05-16T01:10:11.150Z,7.50
2023-05-16T01:11:14.125Z,7.14
2023-05-16T01:12:17.103Z,7.43
2023-05-16T01:13:20.289Z,6.83
2023-05-16T01:14:23.580Z,6.33
2023-05-16T01:15:26.925Z,6.67
2023-05-16T01:16:30.256Z,7.00
2023-05-16T01:17:33.711Z,7.43
2023-05-16T01:18:37.043Z,7.86
2023-05-16T01:19:40.313Z,6.00
2023-05-16T01:20:43.684Z,6.14
2023-05-16T01:21:47.066Z,7.57
2023-05-16T01:22:50.369Z,10.14
2023-05-16T01:23:53.538Z,10.29
2023-05-16T01:24:56.487Z,8.43
2023-05-16T01:25:59.797Z,8.14
2023-05-16T01:27:02.982Z,7.43
2023-05-16T01:28:06.069Z,7.67
2023-05-16T01:29:09.056Z,7.67
2023-05-16T01:30:12.426Z,5.67
2023-05-16T01:31:15.807Z,6.29
2023-05-16T01:32:19.091Z,5.50
2023-05-16T01:33:22.483Z,6.57
2023-05-16T01:34:25.758Z,7.71
2023-05-16T01:35:29.239Z,8.57
2023-05-16T01:36:32.534Z,7.43
2023-05-16T01:37:35.923Z,7.71
2023-05-16T01:38:39.205Z,8.00
2023-05-16T01:39:42.487Z,6.29
2023-05-16T01:40:45.776Z,6.57
2023-05-16T01:41:49.059Z,6.00
2023-05-16T01:42:52.352Z,6.86
2023-05-16T01:43:55.730Z,5.14
2023-05-16T01:44:59.014Z,5.43
2023-05-16T01:46:02.305Z,6.14
2023-05-16T01:47:05.612Z,7.43
2023-05-16T01:48:09.155Z,6.43
2023-05-16T01:49:12.665Z,5.43
2023-05-16T01:50:15.956Z,5.43
2023-05-16T01:51:19.034Z,5.14
2023-05-16T01:52:22.417Z,5.86
2023-05-16T01:53:25.695Z,5.14
2023-05-16T01:54:28.849Z,6.00
2023-05-16T01:55:32.017Z,5.00
2023-05-16T01:56:34.939Z,5.00
2023-05-16T01:57:38.012Z,5.17
2023-05-16T01:58:40.996Z,5.00
2023-05-16T01:59:44.140Z,5.00
2023-05-16T02:00:47.583Z,5.00
2023-05-16T02:01:50.535Z,4.71
2023-05-16T02:02:53.660Z,3.43
2023-05-16T02:03:56.706Z,3.57
2023-05-16T02:04:59.664Z,4.00
2023-05-16T02:06:02.660Z,3.33
2023-05-16T02:07:05.835Z,4.00
2023-05-16T02:08:08.909Z,4.00
2023-05-16T02:09:11.989Z,4.67
2023-05-16T02:10:15.178Z,5.86
2023-05-16T02:11:18.259Z,8.43
2023-05-16T02:12:21.340Z,7.86
2023-05-16T02:13:24.326Z,5.67
2023-05-16T02:14:27.297Z,5.33
2023-05-16T02:15:30.472Z,8.00
2023-05-16T02:16:33.454Z,10.14
2023-05-16T02:17:36.567Z,6.57
2023-05-16T02:18:39.664Z,4.71
2023-05-16T02:19:42.690Z,4.00
2023-05-16T02:20:45.768Z,3.67
2023-05-16T02:21:48.944Z,3.00
2023-05-16T02:22:52.125Z,4.14
2023-05-16T02:23:55.309Z,4.71
2023-05-16T02:24:58.386Z,3.43
2023-05-16T02:26:01.570Z,2.71
2023-05-16T02:27:04.649Z,2.43
2023-05-16T02:28:07.731Z,3.83
2023-05-16T02:29:10.690Z,3.83
2023-05-16T02:30:13.789Z,3.57
2023-05-16T02:31:16.800Z,5.00
2023-05-16T02:32:20.010Z,5.57
2023-05-16T02:33:23.024Z,5.00
2023-05-16T02:34:26.210Z,5.00
2023-05-16T02:35:29.168Z,4.50
2023-05-16T02:36:32.272Z,3.50
2023-05-16T02:37:35.241Z,5.67
2023-05-16T02:38:38.321Z,8.57
2023-05-16T02:39:41.400Z,6.43
2023-05-16T02:40:44.391Z,6.00
2023-05-16T02:41:47.560Z,4.71
2023-05-16T02:42:50.742Z,3.00
2023-05-16T02:43:53.817Z,3.33
2023-05-16T02:44:56.931Z,4.00
2023-05-16T02:46:00.037Z,5.43
2023-05-16T02:47:03.072Z,7.67
2023-05-16T02:48:06.198Z,7.43
2023-05-16T02:49:09.324Z,7.00
2023-05-16T02:50:12.398Z,4.57
2023-05-16T02:51:15.487Z,4.86
2023-05-16T02:52:18.567Z,4.43
2023-05-16T02:53:21.741Z,4.67
2023-05-16T02:54:24.818Z,4.00
2023-05-16T02:55:27.796Z,3.67
2023-05-16T02:56:30.853Z,3.71
2023-05-16T02:57:33.872Z,5.29
2023-05-16T02:58:36.929Z,6.00
2023-05-16T02:59:39.985Z,4.33
2023-05-16T03:00:43.045Z,4.83
2023-05-16T03:01:46.112Z,3.71
2023-05-16T03:02:49.416Z,2.86
2023-05-16T03:03:52.559Z,4.71
2023-05-16T03:04:55.592Z,5.00
2023-05-16T03:05:58.696Z,5.57
2023-05-16T03:07:01.670Z,6.67
2023-05-16T03:08:04.847Z,6.17
2023-05-16T03:09:07.934Z,7.14
2023-05-16T03:10:11.104Z,4.29
2023-05-16T03:11:14.110Z,2.43
2023-05-16T03:12:17.202Z,3.43
2023-05-16T03:13:20.144Z,3.50
2023-05-16T03:14:23.126Z,4.00
2023-05-16T03:15:26.434Z,3.57
2023-05-16T03:16:29.723Z,4.29
2023-05-16T03:17:32.679Z,3.50
2023-05-16T03:18:35.793Z,3.14
2023-05-16T03:19:39.235Z,3.14
2023-05-16T03:20:42.389Z,3.29
2023-05-16T03:21:45.600Z,3.00
2023-05-16T03:22:48.683Z,2.86
2023-05-16T03:23:51.859Z,3.43
2023-05-16T03:24:55.253Z,3.00
2023-05-16T03:25:58.751Z,3.86
2023-05-16T03:27:01.921Z,3.14
2023-05-16T03:28:05.001Z,1.71
2023-05-16T03:29:08.050Z,2.33
2023-05-16T03:30:11.196Z,2.83
2023-05-16T03:31:14.187Z,1.71
2023-05-16T03:32:17.225Z,2.71
2023-05-16T03:33:20.512Z,3.14
2023-05-16T03:34:23.782Z,3.00
2023-05-16T03:35:26.871Z,2.57
2023-05-16T03:36:29.941Z,2.43
2023-05-16T03:37:33.123Z,2.29
2023-05-16T03:38:36.304Z,1.57
2023-05-16T03:39:39.400Z,1.43
2023-05-16T03:40:42.466Z,2.00
2023-05-16T03:41:45.546Z,2.67
2023-05-16T03:42:48.829Z,2.00
2023-05-16T03:43:52.110Z,2.29
2023-05-16T03:44:55.397Z,3.00
2023-05-16T03:45:58.724Z,2.43
2023-05-16T03:47:02.071Z,3.00
2023-05-16T03:48:05.311Z,2.67
2023-05-16T03:49:08.426Z,2.14
2023-05-16T03:50:11.745Z,2.67
2023-05-16T03:51:14.911Z,2.67
2023-05-16T03:52:18.107Z,2.67
2023-05-16T03:53:21.262Z,2.67
2023-05-16T03:54:24.237Z,2.50
2023-05-16T03:55:27.884Z,3.33
2023-05-16T03:56:31.132Z,2.87
2023-05-16T03:57:34.402Z,2.57
2023-05-16T03:58:37.697Z,2.00
2023-05-16T03:59:40.768Z,2.86
2023-05-16T04:00:43.954Z,3.29
2023-05-16T04:01:47.148Z,2.33
2023-05-16T04:02:50.410Z,2.67
2023-05-16T04:03:53.618Z,3.33
2023-05-16T04:04:56.887Z,2.00
2023-05-16T04:06:00.253Z,3.00
2023-05-16T04:07:03.464Z,2.86
2023-05-16T04:08:06.836Z,3.00
2023-05-16T04:09:10.132Z,3.00
2023-05-16T04:10:13.301Z,2.57
2023-05-16T04:11:16.581Z,2.29
2023-05-16T04:12:19.793Z,2.71
2023-05-16T04:13:23.016Z,2.00
2023-05-16T04:14:26.204Z,2.71
2023-05-16T04:15:29.665Z,2.86
2023-05-16T04:16:33.153Z,2.43
2023-05-16T04:17:36.536Z,2.71
2023-05-16T04:18:39.833Z,3.43
2023-05-16T04:19:42.987Z,3.00
2023-05-16T04:20:46.154Z,2.57
2023-05-16T04:21:49.539Z,2.00
2023-05-16T04:22:52.828Z,2.43
2023-05-16T04:23:55.889Z,2.14
2023-05-16T04:24:59.081Z,2.43
2023-05-16T04:26:02.261Z,2.67
2023-05-16T04:27:05.448Z,2.00
2023-05-16T04:28:08.829Z,3.50
2023-05-16T04:29:11.997Z,3.57
2023-05-16T04:30:15.007Z,2.71
2023-05-16T04:31:18.394Z,3.33
2023-05-16T04:32:21.318Z,3.67
2023-05-16T04:33:24.637Z,3.00
2023-05-16T04:34:27.959Z,2.57
2023-05-16T04:35:31.208Z,3.00
2023-05-16T04:36:34.389Z,3.43
2023-05-16T04:37:37.563Z,4.14
2023-05-16T04:38:40.860Z,4.00
2023-05-16T04:39:44.034Z,3.00
2023-05-16T04:40:47.322Z,2.57
2023-05-16T04:41:50.609Z,2.57
2023-05-16T04:42:53.779Z,2.14
2023-05-16T04:43:57.063Z,2.00
2023-05-16T04:45:00.236Z,1.29
2023-05-16T04:46:03.443Z,1.86
2023-05-16T04:47:09.441Z,1.14
2023-05-16T04:48:12.462Z,2.62
2023-05-16T04:49:15.846Z,3.17
2023-05-16T04:50:19.063Z,2.43
2023-05-16T04:51:22.109Z,2.43
2023-05-16T04:52:25.287Z,2.86
2023-05-16T04:53:28.483Z,3.43
2023-05-16T04:54:31.459Z,2.86
2023-05-16T04:55:34.562Z,3.14
2023-05-16T04:56:37.730Z,2.00
2023-05-16T04:57:40.687Z,1.67
2023-05-16T04:58:43.773Z,2.33
2023-05-16T04:59:46.956Z,3.29
2023-05-16T05:00:50.038Z,1.71
2023-05-16T05:01:53.131Z,2.86
2023-05-16T05:02:56.213Z,2.57
2023-05-16T05:03:59.288Z,3.17
2023-05-16T05:05:02.411Z,3.14
2023-05-16T05:06:05.641Z,2.43
2023-05-16T05:07:09.018Z,2.86
2023-05-16T05:08:12.404Z,2.00
2023-05-16T05:09:15.688Z,1.50
2023-05-16T05:10:18.908Z,2.67
2023-05-16T05:11:22.158Z,2.17
2023-05-16T05:12:25.647Z,2.43
2023-05-16T05:13:28.928Z,2.86
2023-05-16T05:14:32.112Z,2.43
2023-05-16T05:15:35.406Z,3.00
2023-05-16T05:16:38.676Z,3.14
2023-05-16T05:17:43.082Z,3.00
2023-05-16T05:18:46.580Z,2.50
2023-05-16T05:19:49.862Z,2.29
2023-05-16T05:20:53.460Z,2.43
2023-05-16T05:21:56.735Z,3.14
2023-05-16T05:22:59.921Z,3.00
2023-05-16T05:24:03.104Z,3.00
2023-05-16T05:25:06.179Z,2.14
2023-05-16T05:26:09.263Z,1.86
2023-05-16T05:27:12.303Z,2.57
2023-05-16T05:28:15.214Z,2.33
2023-05-16T05:29:18.225Z,3.00
2023-05-16T05:30:21.147Z,3.00
2023-05-16T05:31:24.182Z,3.33
2023-05-16T05:32:27.196Z,3.29
2023-05-16T05:33:30.203Z,2.00
2023-05-16T05:34:33.308Z,2.00
2023-05-16T05:35:36.253Z,1.67
2023-05-16T05:36:39.354Z,2.17
2023-05-16T05:37:42.525Z,3.00
2023-05-16T05:38:45.702Z,2.43
2023-05-16T05:39:48.897Z,2.00
2023-05-16T05:40:51.991Z,2.00
2023-05-16T05:41:54.959Z,1.67
2023-05-16T05:42:57.914Z,2.00
2023-05-16T05:44:01.122Z,2.86
2023-05-16T05:45:04.169Z,3.57
2023-05-16T05:46:07.216Z,2.67
2023-05-16T05:47:10.232Z,2.67
2023-05-16T05:48:13.387Z,2.00
2023-05-16T05:49:16.496Z,2.00
2023-05-16T05:50:19.545Z,3.29
2023-05-16T05:51:22.559Z,3.50
2023-05-16T05:52:25.536Z,2.67
2023-05-16T05:53:28.625Z,2.71
2023-05-16T05:54:31.679Z,2.00
2023-05-16T05:55:34.877Z,2.43
2023-05-16T05:56:37.855Z,3.00
2023-05-16T05:57:40.934Z,3.00
2023-05-16T05:58:44.107Z,2.43
2023-05-16T05:59:47.290Z,1.71
2023-05-16T06:00:50.262Z,2.14
2023-05-16T06:01:53.399Z,2.67
2023-05-16T06:02:57.110Z,2.00
2023-05-16T06:04:01.932Z,2.50
2023-05-16T06:05:04.372Z,2.50
2023-05-16T06:06:07.549Z,2.00
2023-05-16T06:07:10.626Z,3.00
2023-05-16T06:08:13.676Z,2.67
2023-05-16T06:09:16.751Z,3.43
2023-05-16T06:10:19.724Z,4.00
2023-05-16T06:11:22.800Z,3.00
2023-05-16T06:12:25.792Z,2.67
2023-05-16T06:13:28.873Z,2.00
2023-05-16T06:14:31.941Z,2.86
2023-05-16T06:15:34.928Z,3.33
2023-05-16T06:16:37.977Z,2.43
2023-05-16T06:17:41.006Z,2.43
2023-05-16T06:18:44.240Z,3.14
2023-05-16T06:19:47.351Z,3.00
2023-05-16T06:20:50.315Z,2.83
2023-05-16T06:21:53.295Z,2.86
2023-05-16T06:22:56.294Z,3.29
2023-05-16T06:23:59.355Z,4.83
2023-05-16T06:25:03.356Z,3.57
2023-05-16T06:26:06.327Z,3.75
2023-05-16T06:27:09.519Z,2.83
2023-05-16T06:28:12.700Z,3.00
2023-05-16T06:29:15.900Z,3.33
2023-05-16T06:30:19.183Z,3.57
2023-05-16T06:31:22.318Z,3.86
2023-05-16T06:32:25.665Z,4.14
2023-05-16T06:33:28.806Z,4.43
2023-05-16T06:34:32.220Z,3.71
2023-05-16T06:35:35.274Z,3.00
2023-05-16T06:36:38.777Z,3.00
2023-05-16T06:37:43.032Z,3.00
2023-05-16T06:38:46.664Z,3.00
2023-05-16T06:39:49.946Z,3.00
2023-05-16T06:40:53.229Z,3.43
2023-05-16T06:41:56.894Z,4.00
2023-05-16T06:43:00.102Z,3.57
2023-05-16T06:44:03.357Z,3.00
2023-05-16T06:45:06.571Z,3.00
2023-05-16T06:46:09.911Z,3.00
2023-05-16T06:47:13.254Z,3.86
2023-05-16T06:48:16.633Z,4.57
2023-05-16T06:49:19.705Z,3.00
2023-05-16T06:50:23.106Z,3.43
2023-05-16T06:51:26.585Z,3.71
2023-05-16T06:52:29.979Z,3.57
2023-05-16T06:53:33.171Z,3.86
2023-05-16T06:54:36.351Z,4.67
2023-05-16T06:55:39.741Z,4.00
2023-05-16T06:56:43.114Z,3.86
2023-05-16T06:57:46.592Z,3.43
2023-05-16T06:58:50.003Z,3.43
2023-05-16T06:59:53.029Z,4.00
2023-05-16T07:00:56.309Z,3.00
2023-05-16T07:02:02.648Z,3.43
2023-05-16T07:03:06.047Z,4.00
2023-05-16T07:04:09.384Z,4.00
2023-05-16T07:05:12.579Z,3.43
2023-05-16T07:06:15.646Z,3.33
2023-05-16T07:07:19.341Z,4.57
2023-05-16T07:08:22.730Z,4.00
2023-05-16T07:09:26.112Z,4.43
2023-05-16T07:10:29.552Z,4.14
2023-05-16T07:11:32.995Z,3.86
2023-05-16T07:12:36.460Z,3.86
2023-05-16T07:13:39.664Z,3.86
2023-05-16T07:14:43.134Z,6.43
2023-05-16T07:15:46.418Z,5.57
2023-05-16T07:16:49.788Z,4.71
2023-05-16T07:17:53.023Z,3.57
2023-05-16T07:18:56.578Z,3.00
2023-05-16T07:20:01.755Z,3.71
2023-05-16T07:21:04.283Z,4.00
2023-05-16T07:22:07.677Z,3.86
2023-05-16T07:23:11.058Z,4.00
2023-05-16T07:24:14.550Z,4.00
2023-05-16T07:25:17.834Z,4.43
2023-05-16T07:26:21.215Z,5.00
2023-05-16T07:27:24.515Z,3.43
2023-05-16T07:28:28.173Z,4.00
2023-05-16T07:29:31.783Z,3.43
2023-05-16T07:30:35.357Z,4.00
2023-05-16T07:31:38.872Z,4.00
2023-05-16T07:32:42.685Z,4.43
2023-05-16T07:33:46.548Z,4.25
2023-05-16T07:34:49.961Z,4.00
2023-05-16T07:36:00.836Z,3.57
2023-05-16T07:36:57.901Z,3.50
2023-05-16T07:38:01.390Z,5.00
2023-05-16T07:39:05.049Z,3.57
2023-05-16T07:40:08.327Z,3.43
2023-05-16T07:41:11.805Z,4.33
2023-05-16T07:42:15.371Z,3.43
2023-05-16T07:43:18.760Z,4.43
2023-05-16T07:44:22.275Z,4.00
2023-05-16T07:45:25.743Z,4.00
2023-05-16T07:46:29.251Z,4.00
2023-05-16T07:47:32.692Z,4.43
2023-05-16T07:48:36.010Z,5.00
2023-05-16T07:49:39.696Z,4.86
2023-05-16T07:50:49.838Z,5.00
2023-05-16T07:51:53.642Z,5.00
2023-05-16T07:52:57.043Z,5.00
2023-05-16T07:54:00.730Z,5.43
2023-05-16T07:55:04.092Z,6.00
2023-05-16T07:56:07.299Z,4.71
2023-05-16T07:57:10.424Z,4.43
2023-05-16T07:58:14.695Z,5.00
2023-05-16T07:59:18.149Z,5.25
2023-05-16T08:00:21.854Z,5.14
2023-05-16T08:01:25.610Z,4.57
2023-05-16T08:02:29.645Z,4.00
2023-05-16T08:03:33.239Z,4.37
2023-05-16T08:04:36.898Z,4.43
2023-05-16T08:05:40.460Z,5.43
2023-05-16T08:06:44.223Z,5.75
2023-05-16T08:07:47.633Z,5.57
2023-05-16T08:08:51.263Z,4.57
2023-05-16T08:09:54.993Z,4.00
2023-05-16T08:10:58.592Z,4.71
2023-05-16T08:12:02.075Z,6.57
2023-05-16T08:13:05.669Z,6.00
2023-05-16T08:14:09.567Z,5.00
2023-05-16T08:15:13.583Z,5.00
2023-05-16T08:16:17.377Z,5.43
2023-05-16T08:17:21.028Z,5.50
2023-05-16T08:18:24.830Z,4.86
2023-05-16T08:19:28.373Z,5.12
2023-05-16T08:20:32.050Z,6.00
2023-05-16T08:21:35.835Z,5.75
2023-05-16T08:22:39.514Z,5.00
2023-05-16T08:23:43.049Z,4.50
2023-05-16T08:24:46.614Z,4.86
2023-05-16T08:25:50.505Z,5.00
2023-05-16T08:26:54.107Z,4.86
2023-05-16T08:27:57.648Z,4.00
2023-05-16T08:29:01.137Z,4.50
2023-05-16T08:30:04.523Z,5.43
2023-05-16T08:31:08.079Z,5.57
2023-05-16T08:32:11.412Z,5.00
2023-05-16T08:33:14.662Z,4.57
2023-05-16T08:34:17.874Z,5.00
2023-05-16T08:35:21.395Z,5.29
2023-05-16T08:36:24.989Z,5.00
2023-05-16T08:37:28.373Z,5.86
2023-05-16T08:38:33.482Z,6.43
2023-05-16T08:39:36.373Z,5.37
2023-05-16T08:40:39.985Z,5.43
2023-05-16T08:41:43.392Z,4.43
2023-05-16T08:42:46.478Z,5.86
2023-05-16T08:43:49.687Z,6.43
2023-05-16T08:44:52.916Z,5.17
2023-05-16T08:45:56.316Z,6.00
2023-05-16T08:46:59.956Z,6.29
2023-05-16T08:48:03.445Z,6.14
2023-05-16T08:49:06.857Z,5.00
2023-05-16T08:50:10.257Z,5.00
2023-05-16T08:51:13.731Z,5.86
2023-05-16T08:52:17.018Z,6.14
2023-05-16T08:53:20.174Z,5.33
2023-05-16T08:54:23.377Z,6.00
2023-05-16T08:55:32.602Z,5.86
2023-05-16T08:56:36.100Z,6.00
2023-05-16T08:57:39.492Z,5.43
2023-05-16T08:58:42.765Z,5.29
2023-05-16T08:59:46.051Z,4.00
2023-05-16T09:00:49.379Z,5.00
2023-05-16T09:01:52.728Z,6.00
2023-05-16T09:02:56.337Z,6.33
2023-05-16T09:03:59.743Z,8.86
2023-05-16T09:05:03.185Z,9.57
2023-05-16T09:06:08.085Z,7.57
2023-05-16T09:07:11.094Z,6.75
2023-05-16T09:08:14.677Z,6.57
2023-05-16T09:09:18.068Z,7.29
2023-05-16T09:10:21.415Z,7.00
2023-05-16T09:11:24.655Z,6.57
2023-05-16T09:12:28.329Z,5.67
2023-05-16T09:13:31.941Z,4.71
2023-05-16T09:14:35.305Z,5.86
2023-05-16T09:15:38.614Z,6.14
2023-05-16T09:16:41.767Z,5.43
2023-05-16T09:19:04.379Z,6.00
2023-05-16T09:20:08.024Z,6.50
2023-05-16T09:21:11.602Z,7.00
2023-05-16T09:22:14.763Z,7.43
2023-05-16T09:23:18.181Z,8.71
2023-05-16T09:24:21.577Z,8.14
2023-05-16T09:26:29.563Z,8.50
2023-05-16T09:27:33.155Z,7.00
2023-05-16T09:28:36.510Z,5.57
2023-05-16T09:29:39.641Z,7.00
2023-05-16T09:30:43.014Z,6.00
2023-05-16T09:31:46.365Z,5.00
2023-05-16T09:32:50.321Z,5.57
2023-05-16T09:33:53.789Z,6.00
2023-05-16T09:34:57.228Z,6.86
2023-05-16T09:36:06.492Z,7.86
2023-05-16T09:37:09.763Z,7.00
2023-05-16T09:38:13.066Z,6.33
2023-05-16T09:39:16.325Z,6.00
2023-05-16T09:40:19.779Z,6.43
2023-05-16T09:41:23.321Z,6.57
2023-05-16T09:42:29.515Z,7.29
2023-05-16T09:43:34.018Z,7.62
2023-05-16T09:44:37.684Z,8.50
2023-05-16T09:45:41.509Z,8.00
2023-05-16T09:46:45.324Z,8.25
2023-05-16T09:47:48.936Z,6.86
2023-05-16T09:48:52.661Z,7.86
2023-05-16T09:49:56.267Z,7.29
2023-05-16T09:51:03.261Z,6.00
2023-05-16T09:52:06.847Z,6.00
2023-05-16T09:53:10.506Z,5.86
2023-05-16T09:54:14.173Z,4.57
2023-05-16T09:55:17.861Z,5.25
2023-05-16T09:56:21.522Z,5.00
2023-05-16T09:57:25.079Z,5.00
2023-05-16T09:58:28.879Z,5.86
2023-05-16T09:59:32.465Z,7.00
2023-05-16T10:00:36.065Z,6.71
2023-05-16T10:01:39.579Z,6.00
2023-05-16T10:02:45.884Z,6.86
2023-05-16T10:03:49.619Z,7.50
2023-05-16T10:04:53.154Z,7.50
2023-05-16T10:05:56.882Z,7.57
2023-05-16T10:07:03.340Z,6.14
2023-05-16T10:08:06.940Z,5.50
2023-05-16T10:09:10.625Z,4.57
2023-05-16T10:10:14.424Z,4.62
2023-05-16T10:11:19.148Z,5.57
2023-05-16T10:12:22.627Z,5.00
2023-05-16T10:13:26.118Z,5.43
2023-05-16T10:14:29.483Z,6.14
2023-05-16T10:15:33.076Z,5.14
2023-05-16T10:16:39.222Z,3.43
2023-05-16T10:17:42.662Z,4.50
2023-05-16T10:18:46.208Z,5.00
2023-05-16T10:19:49.921Z,5.50
2023-05-16T10:20:55.874Z,6.00
2023-05-16T10:21:59.248Z,6.50
2023-05-16T10:23:02.463Z,6.57
2023-05-16T10:24:05.604Z,5.14
2023-05-16T10:25:12.175Z,4.57
2023-05-16T10:26:18.360Z,4.50
2023-05-16T10:27:21.837Z,4.37
2023-05-16T10:28:25.103Z,4.71
2023-05-16T10:29:28.385Z,4.86
2023-05-16T10:30:31.875Z,6.43
2023-05-16T10:31:35.410Z,6.14
2023-05-16T10:32:44.517Z,4.71
2023-05-16T10:33:51.147Z,4.62
2023-05-16T10:34:54.736Z,5.50
2023-05-16T10:35:58.229Z,5.50
2023-05-16T10:37:01.811Z,4.57
2023-05-16T10:38:07.477Z,4.43
2023-05-16T10:39:09.921Z,5.00
2023-05-16T10:40:13.639Z,5.00
2023-05-16T10:41:17.103Z,5.00
2023-05-16T10:42:23.459Z,5.43
2023-05-16T10:43:29.520Z,5.50
2023-05-16T10:44:33.308Z,4.50
2023-05-16T10:45:37.046Z,5.57
2023-05-16T10:46:43.543Z,6.43
2023-05-16T10:47:47.007Z,5.00
2023-05-16T10:48:52.559Z,5.86
2023-05-16T10:49:55.153Z,7.00
2023-05-16T10:50:58.660Z,6.57
2023-05-16T10:52:02.125Z,6.86
2023-05-16T10:53:05.522Z,7.50
2023-05-16T10:54:09.009Z,7.14
2023-05-16T10:55:12.377Z,7.14
2023-05-16T10:56:15.785Z,6.71
2023-05-16T10:57:20.366Z,5.00
2023-05-16T10:58:23.868Z,6.57
2023-05-16T10:59:26.929Z,6.14
2023-05-16T11:00:30.354Z,5.33
2023-05-16T11:01:36.583Z,5.57
2023-05-16T11:02:40.302Z,5.00
2023-05-16T11:03:44.109Z,5.50
2023-05-16T11:04:47.403Z,4.71
2023-05-16T11:05:50.871Z,5.86
2023-05-16T11:06:54.358Z,6.14
2023-05-16T11:07:57.850Z,5.50
2023-05-16T11:09:01.104Z,5.71
2023-05-16T11:10:07.450Z,7.71
2023-05-16T11:11:10.977Z,6.25
2023-05-16T11:12:14.245Z,6.37
2023-05-16T11:13:17.352Z,5.67
2023-05-16T11:14:20.825Z,7.00
2023-05-16T11:15:27.128Z,7.00
2023-05-16T11:16:30.594Z,6.50
2023-05-16T11:17:34.713Z,6.29
2023-05-16T11:18:38.312Z,8.43
2023-05-16T11:19:41.758Z,8.71
2023-05-16T11:20:45.347Z,6.14
2023-05-16T11:21:48.715Z,5.00
2023-05-16T11:22:54.796Z,6.29
2023-05-16T11:24:00.593Z,7.25
2023-05-16T11:25:03.910Z,6.50
2023-05-16T11:26:10.279Z,6.57
2023-05-16T11:27:13.754Z,6.00
2023-05-16T11:28:17.045Z,5.57
2023-05-16T11:29:20.423Z,5.86
2023-05-16T11:30:25.608Z,7.00
2023-05-16T11:31:29.165Z,7.62
2023-05-16T11:32:32.525Z,9.29
2023-05-16T11:33:35.722Z,8.71
2023-05-16T11:34:38.813Z,7.86
2023-05-16T11:35:41.920Z,8.57
2023-05-16T11:36:45.121Z,8.00
2023-05-16T11:37:48.336Z,7.86
2023-05-16T11:38:51.628Z,8.29
2023-05-16T11:39:55.149Z,8.43
2023-05-16T11:40:58.396Z,8.57
2023-05-16T11:42:01.750Z,7.33
2023-05-16T11:43:06.567Z,6.57
2023-05-16T11:44:09.278Z,7.00
2023-05-16T11:45:12.421Z,7.00
2023-05-16T11:46:15.575Z,7.86
2023-05-16T11:47:19.624Z,9.00
2023-05-16T11:48:35.385Z,8.25
2023-05-16T11:49:27.234Z,8.50
2023-05-16T11:50:30.632Z,9.29
2023-05-16T11:51:33.773Z,8.43
2023-05-16T11:52:36.890Z,9.00
2023-05-16T11:53:40.176Z,9.00
2023-05-16T11:54:43.355Z,8.71
2023-05-16T11:55:48.363Z,7.71
2023-05-16T11:56:51.144Z,8.00
2023-05-16T11:57:54.326Z,7.57
2023-05-16T11:58:57.479Z,7.43
2023-05-16T12:00:00.814Z,8.50
2023-05-16T12:01:03.976Z,9.00
2023-05-16T12:02:07.260Z,9.00
2023-05-16T12:03:10.625Z,9.43
2023-05-16T12:04:14.077Z,10.43
2023-05-16T12:05:17.647Z,10.29
2023-05-16T12:06:21.116Z,9.14
2023-05-16T12:07:24.407Z,8.00
2023-05-16T12:08:27.806Z,8.86
2023-05-16T12:09:31.070Z,8.43
2023-05-16T12:10:34.811Z,8.86
2023-05-16T12:11:38.575Z,10.00
2023-05-16T12:12:41.747Z,10.00
2023-05-16T12:13:45.026Z,10.43
2023-05-16T12:14:48.822Z,10.29
2023-05-16T12:15:52.113Z,9.43
2023-05-16T12:16:55.560Z,8.00
2023-05-16T12:17:59.047Z,8.86
2023-05-16T12:19:02.502Z,9.13
2023-05-16T12:20:05.856Z,8.86
2023-05-16T12:21:09.250Z,10.00
2023-05-16T12:22:12.529Z,9.14
2023-05-16T12:23:15.709Z,8.86
2023-05-16T12:24:19.100Z,10.86
2023-05-16T12:25:22.344Z,10.43
2023-05-16T12:26:25.474Z,9.86
2023-05-16T12:27:28.649Z,11.00
2023-05-16T12:28:31.929Z,10.57
2023-05-16T12:29:35.325Z,11.43
2023-05-16T12:30:38.507Z,10.00
2023-05-16T12:31:41.895Z,9.57
2023-05-16T12:32:45.296Z,9.86
2023-05-16T12:33:48.667Z,10.57
2023-05-16T12:34:52.171Z,10.33
2023-05-16T12:35:55.324Z,10.14
2023-05-16T12:36:58.518Z,9.67
2023-05-16T12:38:01.700Z,11.00
2023-05-16T12:39:04.835Z,11.43
2023-05-16T12:40:08.066Z,12.00
2023-05-16T12:41:11.346Z,12.71
2023-05-16T12:42:14.740Z,13.43
2023-05-16T12:43:17.922Z,13.29
2023-05-16T12:44:21.234Z,14.29
2023-05-16T12:45:24.381Z,13.86
2023-05-16T12:46:27.619Z,13.14
2023-05-16T12:47:30.924Z,14.71
2023-05-16T12:48:34.354Z,13.43
2023-05-16T12:49:37.613Z,12.57
2023-05-16T12:50:40.896Z,10.57
2023-05-16T12:51:44.300Z,11.86
2023-05-16T12:52:47.545Z,13.00
2023-05-16T12:54:05.659Z,9.43
2023-05-16T12:54:54.921Z,8.88
2023-05-16T12:55:58.011Z,10.00
2023-05-16T12:57:01.239Z,10.00
2023-05-16T12:58:04.344Z,8.67
2023-05-16T12:59:07.783Z,7.86
2023-05-16T13:00:11.173Z,8.29
2023-05-16T13:01:17.922Z,7.43
2023-05-16T13:02:21.451Z,7.12
2023-05-16T13:03:24.821Z,5.75
2023-05-16T13:04:28.410Z,4.57
2023-05-16T13:05:31.891Z,4.00
2023-05-16T13:06:55.538Z,5.00
2023-05-16T13:07:39.805Z,5.75
2023-05-16T13:08:43.384Z,5.57
2023-05-16T13:09:46.675Z,5.43
2023-05-16T13:10:50.638Z,6.86
2023-05-16T13:11:53.927Z,7.57
2023-05-16T13:12:57.689Z,6.00
2023-05-16T13:14:01.140Z,4.75
2023-05-16T13:15:04.736Z,6.43
2023-05-16T13:16:08.272Z,7.43
2023-05-16T13:17:11.823Z,8.13
2023-05-16T13:18:15.357Z,6.00
2023-05-16T13:19:18.938Z,4.00
2023-05-16T13:20:22.376Z,4.57
2023-05-16T13:21:26.007Z,5.12
2023-05-16T13:22:29.670Z,6.71
2023-05-16T13:23:33.152Z,6.14
2023-05-16T13:24:36.625Z,5.00
2023-05-16T13:25:40.028Z,5.00
2023-05-16T13:26:43.312Z,4.57
2023-05-16T13:27:46.799Z,3.57
2023-05-16T13:28:50.294Z,3.00
2023-05-16T13:29:53.536Z,3.14
2023-05-16T13:30:57.712Z,3.57
2023-05-16T13:32:01.368Z,3.50
2023-05-16T13:33:05.003Z,4.29
2023-05-16T13:34:08.665Z,3.87
2023-05-16T13:35:12.179Z,4.00
2023-05-16T13:36:15.567Z,4.43
2023-05-16T13:37:19.125Z,4.14
2023-05-16T13:38:22.828Z,4.75
2023-05-16T13:39:26.035Z,3.86
2023-05-16T13:40:29.348Z,2.86
2023-05-16T13:41:32.581Z,2.71
2023-05-16T13:42:35.856Z,2.14
2023-05-16T13:43:39.140Z,3.86
2023-05-16T13:44:42.440Z,3.71
2023-05-16T13:45:45.644Z,1.33
2023-05-16T13:46:48.873Z,1.33
2023-05-16T13:47:52.131Z,1.14
2023-05-16T13:48:55.474Z,1.43
2023-05-16T13:50:01.027Z,2.29
2023-05-16T13:51:04.286Z,1.50
2023-05-16T13:52:07.561Z,1.43
2023-05-16T13:53:11.074Z,1.57
2023-05-16T13:54:14.544Z,1.00
2023-05-16T13:55:18.014Z,1.57
2023-05-16T13:56:21.619Z,1.57
2023-05-16T13:57:25.109Z,1.50
2023-05-16T13:58:28.696Z,1.14
2023-05-16T13:59:59.097Z,0.86
2023-05-16T14:01:41.152Z,1.50
2023-05-16T14:02:44.718Z,2.14
2023-05-16T14:03:48.130Z,1.43
2023-05-16T14:04:51.697Z,1.57
2023-05-16T14:05:56.946Z,1.50
2023-05-16T14:07:00.199Z,2.00